createdAt,value
2019-03-09T00:03:43.018Z,87.30
2019-03-09T00:07:59.609Z,87.20
2019-03-09T00:12:16.030Z,87.30
2019-03-09T00:16:32.460Z,87.20
2019-03-09T00:20:48.958Z,87.60
2019-03-09T00:25:07.397Z,87.90
2019-03-09T00:29:25.822Z,88.40
2019-03-09T00:33:42.362Z,88.60
2019-03-09T00:37:58.833Z,88.50
2019-03-09T00:42:15.464Z,88.30
2019-03-09T00:46:32.016Z,88.20
2019-03-09T00:50:48.588Z,88.10
2019-03-09T00:55:10.351Z,88.20
2019-03-09T00:59:26.830Z,87.60
2019-03-09T01:03:43.462Z,87.90
2019-03-09T01:08:00.077Z,87.70
2019-03-09T01:12:16.579Z,87.10
2019-03-09T01:16:46.319Z,86.90
2019-03-09T01:21:02.938Z,86.80
2019-03-09T01:25:19.754Z,86.10
2019-03-09T01:29:36.597Z,85.50
2019-03-09T01:33:53.326Z,84.90
2019-03-09T01:38:09.808Z,84.40
2019-03-09T01:42:26.333Z,84.30
2019-03-09T01:46:42.810Z,83.30
2019-03-09T01:50:59.362Z,83.20
2019-03-09T01:55:15.856Z,82.80
2019-03-09T01:59:32.397Z,82.50
2019-03-09T02:03:48.914Z,82.90
2019-03-09T02:08:05.501Z,83.50
2019-03-09T02:12:22.062Z,84.00
2019-03-09T02:16:38.574Z,83.40
2019-03-09T02:20:55.159Z,83.20
2019-03-09T02:25:12.090Z,83.50
2019-03-09T02:29:28.769Z,82.60
2019-03-09T02:33:45.320Z,82.90
2019-03-09T02:38:03.669Z,82.80
2019-03-09T02:42:20.189Z,82.80
2019-03-09T02:46:37.091Z,83.00
2019-03-09T02:50:56.660Z,82.60
2019-03-09T02:55:13.552Z,82.80
2019-03-09T02:59:30.404Z,82.20
2019-03-09T03:03:46.891Z,82.80
2019-03-09T03:08:03.392Z,83.10
2019-03-09T03:12:19.804Z,83.10
2019-03-09T03:16:36.342Z,83.40
2019-03-09T03:20:52.858Z,83.30
2019-03-09T03:25:09.594Z,82.70
2019-03-09T03:29:26.196Z,82.30
2019-03-09T03:33:43.034Z,81.70
2019-03-09T03:37:59.506Z,80.60
2019-03-09T03:42:16.046Z,80.10
2019-03-09T03:46:32.552Z,79.70
2019-03-09T03:50:49.039Z,78.70
2019-03-09T03:55:07.996Z,77.80
2019-03-09T03:59:24.698Z,77.00
2019-03-09T04:03:41.283Z,76.60
2019-03-09T04:07:58.155Z,76.60
2019-03-09T04:12:14.734Z,76.20
2019-03-09T04:16:31.237Z,74.80
2019-03-09T04:20:47.875Z,74.80
2019-03-09T04:25:06.143Z,74.70
2019-03-09T04:29:22.965Z,74.40
2019-03-09T04:33:39.461Z,74.90
2019-03-09T04:37:55.966Z,74.90
2019-03-09T04:42:12.493Z,74.90
2019-03-09T04:46:28.999Z,74.70
2019-03-09T04:50:45.505Z,74.20
2019-03-09T04:55:03.297Z,73.50
2019-03-09T04:59:19.785Z,73.30
2019-03-09T05:03:36.390Z,72.20
2019-03-09T05:07:56.823Z,71.50
2019-03-09T05:12:13.339Z,71.00
2019-03-09T05:16:30.127Z,71.80
2019-03-09T05:20:46.644Z,71.80
2019-03-09T05:25:03.967Z,72.30
2019-03-09T05:29:20.425Z,72.70
2019-03-09T05:33:36.912Z,72.40
2019-03-09T05:37:53.331Z,74.70
2019-03-09T05:42:09.773Z,76.40
2019-03-09T05:46:26.528Z,79.40
2019-03-09T05:50:43.224Z,81.50
2019-03-09T05:54:59.812Z,82.80
2019-03-09T05:59:16.295Z,84.50
2019-03-09T06:03:32.724Z,86.40
2019-03-09T06:07:49.156Z,86.90
2019-03-09T06:12:05.644Z,88.90
2019-03-09T06:16:22.192Z,89.40
2019-03-09T06:20:38.681Z,90.10
2019-03-09T06:24:55.324Z,90.60
2019-03-09T06:29:11.813Z,91.10
2019-03-09T06:33:29.454Z,91.20
2019-03-09T06:37:50.010Z,91.40
2019-03-09T06:42:10.336Z,91.50
2019-03-09T06:46:26.778Z,91.70
2019-03-09T06:50:43.238Z,92.10
2019-03-09T06:54:59.726Z,92.20
2019-03-09T06:59:16.599Z,92.50
2019-03-09T07:03:33.068Z,92.40
2019-03-09T07:07:49.650Z,92.30
2019-03-09T07:12:06.243Z,92.10
2019-03-09T07:16:22.743Z,92.00
2019-03-09T07:20:39.489Z,92.00
2019-03-09T07:24:55.979Z,91.80
2019-03-09T07:29:12.466Z,91.90
2019-03-09T07:33:29.323Z,91.60
2019-03-09T07:37:45.796Z,91.60
2019-03-09T07:42:02.335Z,91.40
2019-03-09T07:46:18.840Z,90.90
2019-03-09T07:50:35.560Z,91.00
2019-03-09T07:54:52.237Z,90.90
2019-03-09T07:59:08.805Z,90.50
2019-03-09T08:03:25.309Z,90.10
2019-03-09T08:07:42.036Z,89.70
2019-03-09T08:11:58.846Z,89.30
2019-03-09T08:16:15.657Z,89.30
2019-03-09T08:20:32.212Z,87.00
2019-03-09T08:24:49.021Z,86.50
2019-03-09T08:29:06.709Z,85.40
2019-03-09T08:33:23.193Z,83.10
2019-03-09T08:37:39.683Z,82.50
2019-03-09T08:41:56.217Z,83.60
2019-03-09T08:46:12.726Z,84.30
2019-03-09T08:50:29.457Z,85.60
2019-03-09T08:54:46.088Z,86.70
2019-03-09T08:59:02.970Z,86.40
2019-03-09T09:03:19.407Z,85.50
2019-03-09T09:07:35.943Z,84.90
2019-03-09T09:11:52.456Z,83.20
2019-03-09T09:16:09.379Z,82.10
2019-03-09T09:20:26.333Z,82.80
2019-03-09T09:24:42.885Z,81.80
2019-03-09T09:28:59.432Z,83.00
2019-03-09T09:33:16.270Z,82.40
2019-03-09T09:37:33.102Z,80.50
2019-03-09T09:41:49.614Z,78.80
2019-03-09T09:46:06.239Z,79.40
2019-03-09T09:50:22.711Z,78.50
2019-03-09T09:54:39.509Z,73.60
2019-03-09T09:58:56.395Z,72.00
2019-03-09T10:03:13.129Z,68.40
2019-03-09T10:07:29.565Z,68.20
2019-03-09T10:11:46.265Z,69.90
2019-03-09T10:16:02.853Z,67.90
2019-03-09T10:20:19.432Z,67.40
2019-03-09T10:24:35.988Z,69.10
2019-03-09T10:28:52.444Z,65.50
2019-03-09T10:33:08.915Z,66.00
2019-03-09T10:37:25.384Z,65.60
2019-03-09T10:41:41.946Z,62.60
2019-03-09T10:45:58.429Z,62.10
2019-03-09T10:50:15.828Z,63.10
2019-03-09T10:54:35.898Z,62.70
2019-03-09T10:58:51.062Z,59.20
2019-03-09T11:03:07.569Z,57.30
2019-03-09T11:07:24.064Z,57.00
2019-03-09T11:11:40.509Z,56.30
2019-03-09T11:15:57.049Z,57.70
2019-03-09T11:20:17.648Z,54.30
2019-03-09T11:24:34.919Z,55.60
2019-03-09T11:28:51.645Z,55.10
2019-03-09T11:33:10.028Z,53.90
2019-03-09T11:37:26.486Z,55.30
2019-03-09T11:41:42.942Z,55.30
2019-03-09T11:45:59.435Z,54.30
2019-03-09T11:50:16.309Z,54.30
2019-03-09T11:54:32.853Z,53.70
2019-03-09T11:58:49.381Z,52.60
2019-03-09T12:03:05.968Z,51.90
2019-03-09T12:07:23.337Z,51.90
2019-03-09T12:11:39.872Z,52.90
2019-03-09T12:15:56.318Z,54.30
2019-03-09T12:20:16.648Z,55.00
2019-03-09T12:24:33.162Z,54.20
2019-03-09T12:28:50.774Z,55.00
2019-03-09T12:33:07.353Z,55.40
2019-03-09T12:37:26.687Z,55.90
2019-03-09T12:41:43.321Z,56.20
2019-03-09T12:45:59.859Z,54.60
2019-03-09T12:50:21.054Z,54.30
2019-03-09T12:54:37.478Z,54.60
2019-03-09T12:58:54.027Z,54.40
2019-03-09T13:03:10.533Z,56.00
2019-03-09T13:07:27.125Z,53.80
2019-03-09T13:11:43.625Z,52.70
2019-03-09T13:16:00.626Z,51.80
2019-03-09T13:20:17.090Z,53.50
2019-03-09T13:24:33.886Z,54.00
2019-03-09T13:28:50.388Z,53.70
2019-03-09T13:33:07.029Z,55.00
2019-03-09T13:37:23.787Z,55.60
2019-03-09T13:41:40.280Z,55.90
2019-03-09T13:45:56.882Z,56.30
2019-03-09T13:50:13.824Z,54.80
2019-03-09T13:54:30.559Z,55.60
2019-03-09T13:58:47.455Z,56.50
2019-03-09T14:03:03.971Z,54.60
2019-03-09T14:07:20.825Z,55.50
2019-03-09T14:11:37.431Z,56.80
2019-03-09T14:15:56.110Z,56.50
2019-03-09T14:20:16.586Z,57.80
2019-03-09T14:24:33.251Z,58.40
2019-03-09T14:28:49.694Z,59.20
2019-03-09T14:33:06.234Z,60.40
2019-03-09T14:37:22.780Z,59.80
2019-03-09T14:41:39.614Z,59.60
2019-03-09T14:45:56.207Z,59.90
2019-03-09T14:50:25.601Z,60.10
2019-03-09T14:54:42.127Z,60.90
2019-03-09T14:58:58.985Z,59.60
2019-03-09T15:03:15.459Z,60.10
2019-03-09T15:07:31.978Z,59.10
2019-03-09T15:11:48.598Z,59.30
2019-03-09T15:16:05.125Z,59.20
2019-03-09T15:20:21.980Z,59.20
2019-03-09T15:24:38.781Z,59.00
2019-03-09T15:28:55.286Z,58.80
2019-03-09T15:33:11.814Z,59.10
2019-03-09T15:37:28.877Z,59.60
2019-03-09T15:41:46.371Z,60.90
2019-03-09T15:46:02.975Z,61.20
2019-03-09T15:50:21.175Z,62.50
2019-03-09T15:54:37.764Z,62.30
2019-03-09T15:58:54.296Z,63.30
2019-03-09T16:03:11.218Z,63.30
2019-03-09T16:07:34.135Z,64.00
2019-03-09T16:11:54.754Z,63.40
2019-03-09T16:16:11.180Z,64.80
2019-03-09T16:20:28.593Z,63.30
2019-03-09T16:24:45.039Z,61.20
2019-03-09T16:29:01.752Z,60.20
2019-03-09T16:33:18.318Z,61.00
2019-03-09T16:37:34.882Z,60.40
2019-03-09T16:41:53.077Z,61.00
2019-03-09T16:46:09.638Z,62.20
2019-03-09T16:50:26.459Z,63.40
2019-03-09T16:54:43.019Z,64.60
2019-03-09T16:58:59.844Z,65.00
2019-03-09T17:03:16.343Z,66.50
2019-03-09T17:07:33.135Z,69.20
2019-03-09T17:12:04.496Z,70.60
2019-03-09T17:16:21.558Z,70.70
2019-03-09T17:20:38.074Z,72.40
2019-03-09T17:24:55.078Z,75.60
2019-03-09T17:29:11.644Z,79.00
2019-03-09T17:33:28.119Z,82.60
2019-03-09T17:37:45.342Z,84.30
2019-03-09T17:42:04.748Z,85.50
2019-03-09T17:46:22.405Z,88.00
2019-03-09T17:50:39.347Z,87.90
2019-03-09T17:54:56.319Z,88.20
2019-03-09T17:59:13.841Z,89.80
2019-03-09T18:03:30.701Z,90.90
2019-03-09T18:07:48.081Z,91.60
2019-03-09T18:12:04.884Z,91.90
2019-03-09T18:16:21.657Z,91.80
2019-03-09T18:20:38.291Z,92.40
2019-03-09T18:24:54.805Z,92.00
2019-03-09T18:29:11.339Z,91.40
2019-03-09T18:33:28.157Z,91.60
2019-03-09T18:37:44.658Z,91.70
2019-03-09T18:42:01.190Z,91.20
2019-03-09T18:46:18.144Z,91.60
2019-03-09T18:50:34.618Z,91.50
2019-03-09T18:54:51.164Z,91.10
2019-03-09T18:59:07.657Z,89.70
2019-03-09T19:03:24.279Z,90.60
2019-03-09T19:07:40.792Z,91.50
2019-03-09T19:11:57.447Z,91.00
2019-03-09T19:16:16.891Z,91.70
2019-03-09T19:20:33.417Z,91.70
2019-03-09T19:24:50.054Z,90.90
2019-03-09T19:29:07.019Z,91.50
2019-03-09T19:33:23.803Z,90.70
2019-03-09T19:37:40.415Z,90.80
2019-03-09T19:41:59.710Z,89.60
2019-03-09T19:46:17.359Z,90.10
2019-03-09T19:50:33.742Z,89.80
2019-03-09T19:54:50.255Z,90.00
2019-03-09T19:59:07.903Z,90.30
2019-03-09T20:03:24.524Z,90.40
2019-03-09T20:07:41.108Z,90.00
2019-03-09T20:11:57.965Z,89.70
2019-03-09T20:16:14.440Z,88.30
2019-03-09T20:20:31.233Z,85.80
2019-03-09T20:24:48.314Z,86.30
2019-03-09T20:29:04.830Z,85.10
2019-03-09T20:33:21.627Z,85.40
2019-03-09T20:37:38.372Z,84.50
2019-03-09T20:41:54.890Z,84.20
2019-03-09T20:46:11.414Z,83.50
2019-03-09T20:50:27.930Z,82.20
2019-03-09T20:54:46.929Z,81.10
2019-03-09T20:59:05.251Z,82.40
2019-03-09T21:03:22.982Z,80.90
2019-03-09T21:07:39.807Z,83.80
2019-03-09T21:11:58.476Z,84.50
2019-03-09T21:16:16.724Z,83.60
2019-03-09T21:20:33.258Z,83.00
2019-03-09T21:24:50.012Z,81.80
2019-03-09T21:29:07.397Z,82.40
2019-03-09T21:33:24.214Z,83.70
2019-03-09T21:37:40.859Z,83.10
2019-03-09T21:41:57.696Z,82.60
2019-03-09T21:46:14.274Z,82.60
2019-03-09T21:50:31.097Z,81.20
2019-03-09T21:54:47.811Z,81.00
2019-03-09T21:59:04.355Z,82.10
2019-03-09T22:03:20.883Z,81.00
2019-03-09T22:07:37.366Z,80.70
2019-03-09T22:11:53.887Z,80.50
2019-03-09T22:16:10.402Z,79.80
2019-03-09T22:20:27.051Z,81.40
2019-03-09T22:24:43.531Z,80.60
2019-03-09T22:29:00.326Z,80.40
2019-03-09T22:33:16.870Z,80.30
2019-03-09T22:37:33.692Z,80.00
2019-03-09T22:41:50.578Z,79.90
2019-03-09T22:46:07.134Z,78.20
2019-03-09T22:50:25.408Z,78.40
2019-03-09T22:54:41.924Z,78.30
2019-03-09T22:58:58.443Z,77.80
2019-03-09T23:03:14.926Z,77.90
2019-03-09T23:07:31.542Z,76.80
2019-03-09T23:11:47.968Z,77.00
2019-03-09T23:16:04.592Z,76.60
2019-03-09T23:20:21.136Z,76.90
2019-03-09T23:24:37.601Z,77.00
2019-03-09T23:28:54.135Z,76.90
2019-03-09T23:33:23.890Z,77.10
2019-03-09T23:37:40.462Z,77.30
2019-03-09T23:41:56.866Z,77.40
2019-03-09T23:46:13.756Z,77.10
2019-03-09T23:50:30.442Z,77.90
2019-03-09T23:54:46.968Z,77.20
2019-03-09T23:59:03.459Z,76.60
